Eielson Air Force Base
PAEI : rendu visible

Aérodrome :











RETROUVEZ-NOUS SUR...

 
LOGIN :

S'inscrire | Disclaimer

   EN    FR    IT 

 









Légende :    VFR   VFR Marginal   IFR   IFR Intensif   IFR Très Intensif
Visi : 
Plafond : 
>= 8 km
>= 3000ft
5 à 8 km
1000 à 3000 ft
1500m à 5 km
500 à 1000 ft
800 à 1500m
200 à 500 ft
< 800m
< 200 ft
Symboles :   Orages  Brouillard  Fortes neiges  Fortes précipitations  Vent > 20 kt






- Altitude de l'aérodrome : 547 ft
- Code IATA : EIL


PAEI - Eielson Air Force Base

DERNIER METAR :
  • 202056Z VRB04KT 10SM BKN100 00/M10 A2891 RMK AO2A SLP802 T00041102 $

METARs EXPIRÉS :
  • 201956Z 09003KT 10SM OVC100 M09/M11 A2895 RMK AO2A SLP817 T10881106 $
  • 201857Z 00000KT 10SM OVC095 M12/M14 A2897 RMK AO2A SLP824 T11211144 $

TAF TAF PAEI
Valide du 20 à 14h jusqu'au 21 à 20h UTC


201401Z 2014/2120 18004KT 9999 FEW140 SCT200 QNH2900INS
BECMG 2017/2018 10010KT 9999 SCT070 BKN120 WS020/12030KT QNH2875INS
TEMPO 2019/2024 11012G20KT
BECMG 2103/2104 11006KT 9999 SCT050 BKN080 620804 QNH2875INS
BECMG 2119/2120 VRB03KT 9999 VCSH FEW010 BKN050 OVC080 QNH2880INS TX00/2022Z TNM19/2016Z



MET'MAP, la Météo Aéronautique d'un coup d'oeil ! - Copyright ORBIFLY Décembre 2007 - Disclaimer

ORBIFLY MET'MAP TEAM :

Programmation & Développement : Alexandra Zaïnal
Sur une idée originale de : Baudouin d'Aumeries
Assistance à la programmation : Marc-Olivier Méhu
Soutien technique & logistique : Manuel Goepfert

Contact : metmap@orbifly.com




SOURCES & CREDITS :

   NOAA       Earth
Advisory